Time;durP1;ratioP1;P1;durP2;ratioP2;P2;SDS_P1;SDS_P2;PMS_P1;PMS_P2;Temp;Humidity;BMP_temperature;BMP_pressure;BME280_temperature;BME280_humidity;BME280_pressure;Samples;Min_cycle;Max_cycle;Signal;HPM_P1;HPM_P2
2022/01/07 00:01:41;;;;;;;11.13;4.13;;;;;;;2.39;73.70;101385.94;5130195;27;20496;-90
2022/01/07 00:04:06;;;;;;;10.93;3.93;;;;;;;2.42;73.61;101391.09;5128948;27;20027;-90
2022/01/07 00:06:31;;;;;;;10.37;4.10;;;;;;;2.48;73.20;101378.38;5140776;27;20019;-90
2022/01/07 00:08:57;;;;;;;10.47;4.50;;;;;;;2.45;73.12;101378.31;5137152;27;20046;-90
2022/01/07 00:11:22;;;;;;;10.03;4.33;;;;;;;2.44;73.07;101371.44;5129611;27;20016;-89
2022/01/07 00:13:47;;;;;;;8.63;4.07;;;;;;;2.47;72.92;101368.06;5140565;27;20042;-91
2022/01/07 00:16:13;;;;;;;8.63;3.93;;;;;;;2.51;73.02;101382.66;5126839;27;20019;-91
2022/01/07 00:18:41;;;;;;;9.30;3.97;;;;;;;2.54;71.86;101363.06;5132101;27;20351;-91
2022/01/07 00:21:07;;;;;;;8.73;4.13;;;;;;;2.54;72.11;101375.91;5130487;27;20028;-91
2022/01/07 00:23:33;;;;;;;9.63;3.90;;;;;;;2.56;71.83;101368.22;5129157;27;20076;-89
2022/01/07 00:25:58;;;;;;;13.67;3.60;;;;;;;2.54;72.93;101367.31;5133564;27;20019;-88
2022/01/07 00:28:24;;;;;;;8.30;3.80;;;;;;;2.53;72.71;101369.03;5131279;27;20038;-90
2022/01/07 00:30:49;;;;;;;10.00;3.37;;;;;;;2.62;72.22;101365.75;5130519;27;20508;-90
2022/01/07 00:33:15;;;;;;;10.37;3.53;;;;;;;2.56;73.10;101353.66;5134881;27;20053;-90
2022/01/07 00:35:41;;;;;;;9.53;3.87;;;;;;;2.63;72.22;101351.19;5133606;27;20106;-90
2022/01/07 00:38:07;;;;;;;8.93;3.70;;;;;;;2.56;72.92;101340.81;5137327;27;20098;-90
2022/01/07 00:40:32;;;;;;;6.80;3.73;;;;;;;2.51;73.15;101334.75;5131374;27;20026;-90
2022/01/07 00:42:58;;;;;;;7.87;3.70;;;;;;;2.49;72.85;101331.28;5121719;27;20031;-89
2022/01/07 00:45:25;;;;;;;8.83;3.37;;;;;;;2.49;73.08;101336.44;5126460;27;20496;-90
2022/01/07 00:47:52;;;;;;;10.33;3.53;;;;;;;2.43;74.24;101333.75;5137626;27;20029;-90
2022/01/07 00:50:19;;;;;;;13.73;4.27;;;;;;;2.42;74.19;101332.03;5128310;27;20023;-90
2022/01/07 00:52:45;;;;;;;10.30;4.03;;;;;;;2.44;74.22;101322.66;5131203;27;20023;-91
2022/01/07 00:55:12;;;;;;;9.97;3.60;;;;;;;2.45;74.63;101324.38;5133517;27;20024;-90
2022/01/07 00:57:37;;;;;;;10.67;3.60;;;;;;;2.39;75.37;101316.59;5120903;27;20024;-90
2022/01/07 01:00:09;;;;;;;10.03;4.03;;;;;;;2.31;76.02;101301.03;5126228;27;20394;-89
2022/01/07 01:02:35;;;;;;;10.60;3.83;;;;;;;2.29;76.09;101302.75;5133101;27;20036;-89
2022/01/07 01:05:01;;;;;;;9.63;4.07;;;;;;;2.27;75.87;101292.44;5132418;27;20029;-90
2022/01/07 01:07:27;;;;;;;11.07;3.83;;;;;;;2.18;77.01;101294.88;5127842;27;20390;-90
2022/01/07 01:09:52;;;;;;;11.30;4.27;;;;;;;2.22;76.23;101285.50;5127926;27;20458;-88
2022/01/07 01:12:18;;;;;;;11.10;4.00;;;;;;;2.16;76.85;101291.41;5125952;27;20088;-90
2022/01/07 01:14:43;;;;;;;8.90;3.77;;;;;;;2.15;77.41;101281.97;5129652;27;20074;-89
2022/01/07 01:17:09;;;;;;;7.70;3.67;;;;;;;2.16;76.45;101288.84;5130873;27;20029;-90
2022/01/07 01:19:35;;;;;;;13.10;4.23;;;;;;;2.15;77.07;101281.97;5132488;27;20134;-90
2022/01/07 01:22:00;;;;;;;11.67;3.90;;;;;;;2.13;76.69;101271.66;5128662;27;20056;-89
2022/01/07 01:24:26;;;;;;;11.50;4.00;;;;;;;2.13;77.05;101263.13;5132269;27;20114;-90
2022/01/07 01:26:51;;;;;;;14.80;4.17;;;;;;;2.13;76.62;101260.56;5135259;27;20050;-89
2022/01/07 01:29:16;;;;;;;11.33;4.13;;;;;;;2.17;76.65;101251.19;5130402;27;20031;-90
2022/01/07 01:31:42;;;;;;;14.53;3.90;;;;;;;2.17;76.75;101252.06;5134541;27;20133;-90
2022/01/07 01:34:07;;;;;;;8.37;3.40;;;;;;;2.19;76.37;101249.50;5137460;27;20018;-89
2022/01/07 01:36:32;;;;;;;11.50;3.93;;;;;;;2.16;76.47;101249.47;5138251;27;20031;-89
2022/01/07 01:38:59;;;;;;;10.13;3.50;;;;;;;2.17;76.12;101257.19;5133224;27;20109;-91
2022/01/07 01:41:25;;;;;;;7.63;3.70;;;;;;;2.22;76.06;101245.28;5136763;27;20022;-93
2022/01/07 01:43:50;;;;;;;5.27;2.87;;;;;;;2.21;75.87;101233.31;5126638;27;20026;-89
2022/01/07 01:46:17;;;;;;;10.13;3.67;;;;;;;2.17;76.29;101236.66;5137301;27;20074;-90
2022/01/07 01:48:43;;;;;;;9.63;3.80;;;;;;;2.19;76.20;101231.53;5124443;27;20027;-90
2022/01/07 01:51:09;;;;;;;8.13;3.47;;;;;;;2.17;76.42;101223.84;5139772;27;20023;-91
2022/01/07 01:53:34;;;;;;;9.43;3.60;;;;;;;2.18;76.70;101207.59;5134892;27;20031;-89
2022/01/07 01:55:59;;;;;;;8.20;3.50;;;;;;;2.19;75.87;101222.16;5127676;27;20069;-90
2022/01/07 01:58:25;;;;;;;9.93;3.63;;;;;;;2.21;76.23;101206.75;5126434;27;20363;-90
2022/01/07 02:00:50;;;;;;;9.10;2.80;;;;;;;2.20;75.97;101205.91;5131067;27;20079;-90
2022/01/07 02:03:16;;;;;;;9.17;3.83;;;;;;;2.19;76.49;101199.06;5129622;27;20027;-89
2022/01/07 02:05:41;;;;;;;11.33;3.30;;;;;;;2.23;75.79;101190.53;5131117;27;20098;-90
2022/01/07 02:08:08;;;;;;;9.30;3.03;;;;;;;2.23;75.88;101181.97;5129985;27;20027;-90
2022/01/07 02:10:33;;;;;;;9.30;3.17;;;;;;;2.26;75.30;101180.31;5130138;27;20045;-90
2022/01/07 02:12:59;;;;;;;10.10;3.47;;;;;;;2.23;75.84;101180.25;5137197;27;20098;-91
2022/01/07 02:15:24;;;;;;;8.23;3.20;;;;;;;2.26;75.70;101177.75;5134437;27;20016;-91
2022/01/07 02:17:50;;;;;;;7.77;3.30;;;;;;;2.28;75.51;101181.19;5126011;27;20069;-89
2022/01/07 02:20:19;;;;;;;10.57;3.00;;;;;;;2.32;74.89;101184.66;5126529;27;20545;-91
2022/01/07 02:22:44;;;;;;;7.30;2.43;;;;;;;2.35;74.87;101176.16;5124558;27;20132;-90
2022/01/07 02:25:11;;;;;;;5.60;2.63;;;;;;;2.33;74.84;101180.41;5131473;27;20153;-91
2022/01/07 02:27:39;;;;;;;9.10;2.50;;;;;;;2.36;74.82;101176.16;5132438;27;20028;-90
2022/01/07 02:30:08;;;;;;;8.50;2.80;;;;;;;2.37;74.69;101179.63;5144068;27;20076;-90
2022/01/07 02:32:34;;;;;;;4.73;2.57;;;;;;;2.38;74.85;101174.50;5132906;27;20023;-90
2022/01/07 02:34:59;;;;;;;7.63;2.50;;;;;;;2.38;74.76;101168.50;5127999;27;20497;-89
2022/01/07 02:37:25;;;;;;;6.20;2.90;;;;;;;2.42;74.88;101159.97;5136631;27;20025;-90
2022/01/07 02:39:51;;;;;;;9.83;2.90;;;;;;;2.43;74.89;101166.84;5131575;27;20025;-91
2022/01/07 02:42:16;;;;;;;6.63;2.40;;;;;;;2.48;74.77;101159.19;5128180;27;20493;-90
2022/01/07 02:44:42;;;;;;;6.07;2.87;;;;;;;2.48;74.66;101162.63;5140878;27;20033;-90
2022/01/07 02:47:07;;;;;;;7.27;2.63;;;;;;;2.46;75.22;101161.75;5137356;27;20026;-90
2022/01/07 02:49:32;;;;;;;9.37;2.70;;;;;;;2.47;74.95;101163.47;5130009;27;20420;-90
2022/01/07 02:51:58;;;;;;;7.10;2.80;;;;;;;2.44;76.30;101153.16;5131208;27;20084;-90
2022/01/07 02:54:23;;;;;;;5.83;2.50;;;;;;;2.43;76.14;101156.56;5135849;27;20370;-90
2022/01/07 02:56:48;;;;;;;9.53;3.00;;;;;;;2.40;76.99;101153.97;5131127;27;20423;-91
2022/01/07 02:59:14;;;;;;;10.30;2.80;;;;;;;2.38;76.85;101150.53;5130579;27;20023;-91
2022/01/07 03:01:39;;;;;;;7.93;2.70;;;;;;;2.36;76.98;101150.50;5132725;27;20023;-91
2022/01/07 03:04:06;;;;;;;5.90;2.60;;;;;;;2.31;77.26;101134.16;5129775;27;20084;-91
2022/01/07 03:06:32;;;;;;;7.50;2.80;;;;;;;2.31;77.34;101141.00;5130055;27;20043;-91
2022/01/07 03:08:57;;;;;;;5.30;2.73;;;;;;;2.27;78.05;101135.84;5139142;27;20031;-90
2022/01/07 03:11:23;;;;;;;6.97;3.10;;;;;;;2.22;78.31;101134.91;5138283;27;20124;-91
2022/01/07 03:13:49;;;;;;;8.37;3.13;;;;;;;2.23;78.52;101134.06;5138250;27;20025;-89
2022/01/07 03:16:14;;;;;;;9.47;2.90;;;;;;;2.19;78.57;101121.16;5141244;27;20034;-89
2022/01/07 03:18:39;;;;;;;6.77;2.73;;;;;;;2.19;78.79;101127.19;5137060;27;20031;-90
2022/01/07 03:21:05;;;;;;;6.03;2.40;;;;;;;2.18;78.80;101125.44;5135280;27;20063;-91
2022/01/07 03:23:31;;;;;;;7.87;2.87;;;;;;;2.16;79.33;101122.00;5127081;27;20046;-89
2022/01/07 03:25:57;;;;;;;9.80;2.57;;;;;;;2.17;79.29;101125.41;5132432;27;20030;-89
2022/01/07 03:28:22;;;;;;;7.07;2.70;;;;;;;2.12;79.56;101120.22;5140770;27;20030;-91
2022/01/07 03:30:49;;;;;;;7.33;2.90;;;;;;;2.05;80.02;101124.41;5141798;27;20159;-90
2022/01/07 03:33:15;;;;;;;5.20;2.60;;;;;;;2.01;80.06;101120.06;5134879;27;20478;-88
2022/01/07 03:35:40;;;;;;;9.70;3.00;;;;;;;1.96;80.65;101114.03;5129015;27;20494;-89
2022/01/07 03:38:07;;;;;;;9.27;3.00;;;;;;;1.88;80.71;101111.34;5129240;27;20176;-89
2022/01/07 03:40:33;;;;;;;6.43;3.13;;;;;;;1.82;81.26;101113.81;5135020;27;20027;-88
2022/01/07 03:42:58;;;;;;;8.07;3.30;;;;;;;1.78;81.26;101109.47;5131248;27;20037;-89
2022/01/07 03:45:24;;;;;;;7.73;2.60;;;;;;;1.78;81.16;101104.34;5132073;27;20119;-89
2022/01/07 03:47:53;;;;;;;6.93;2.73;;;;;;;1.79;81.54;101098.38;5135758;27;20034;-89
2022/01/07 03:50:22;;;;;;;8.67;3.20;;;;;;;1.74;82.25;101092.31;5133129;27;20027;-88
2022/01/07 03:52:48;;;;;;;7.20;3.60;;;;;;;1.76;82.17;101090.63;5135626;27;20097;-89
2022/01/07 03:55:16;;;;;;;8.73;3.80;;;;;;;1.75;82.04;101088.91;5131367;27;20424;-90
2022/01/07 03:57:42;;;;;;;9.13;3.50;;;;;;;1.72;82.55;101091.44;5134499;27;20076;-88
2022/01/07 04:00:11;;;;;;;7.03;3.20;;;;;;;1.73;82.88;101080.34;5135866;27;20057;-88
2022/01/07 04:02:36;;;;;;;6.73;3.37;;;;;;;1.75;83.07;101073.53;5129573;27;20019;-88
2022/01/07 04:05:02;;;;;;;8.00;2.77;;;;;;;1.78;82.60;101068.44;5131327;27;20493;-88
2022/01/07 04:07:30;;;;;;;8.27;3.03;;;;;;;1.81;82.57;101068.50;5130591;27;20033;-88
2022/01/07 04:09:56;;;;;;;7.20;3.20;;;;;;;1.76;82.92;101071.00;5133585;27;20404;-88
2022/01/07 04:12:21;;;;;;;8.97;3.27;;;;;;;1.79;82.96;101063.31;5129832;27;20034;-87
2022/01/07 04:14:51;;;;;;;6.93;3.27;;;;;;;1.80;83.17;101064.19;5139419;27;20023;-88
2022/01/07 04:17:16;;;;;;;6.03;3.30;;;;;;;1.76;83.57;101060.75;5130367;27;20019;-88
2022/01/07 04:19:41;;;;;;;8.37;3.30;;;;;;;1.78;83.64;101068.44;5130955;27;20042;-88
2022/01/07 04:22:07;;;;;;;7.90;3.07;;;;;;;1.79;83.55;101071.00;5136134;27;20022;-88
2022/01/07 04:24:32;;;;;;;7.00;3.50;;;;;;;1.80;83.34;101067.59;5128199;27;20312;-89
2022/01/07 04:26:57;;;;;;;6.73;3.43;;;;;;;1.79;84.28;101075.28;5129099;27;20025;-87
2022/01/07 04:29:22;;;;;;;6.70;3.40;;;;;;;1.84;83.64;101072.78;5129150;27;20635;-89
2022/01/07 04:31:48;;;;;;;6.57;3.40;;;;;;;1.82;83.77;101065.94;5128419;27;20027;-88
2022/01/07 04:34:13;;;;;;;7.13;3.00;;;;;;;1.85;83.83;101060.00;5130426;27;20020;-89
2022/01/07 04:36:38;;;;;;;9.93;3.43;;;;;;;1.84;83.95;101053.16;5132278;27;20027;-88
2022/01/07 04:39:04;;;;;;;6.80;2.90;;;;;;;1.84;84.10;101067.66;5129310;27;20015;-89
2022/01/07 04:41:29;;;;;;;6.93;3.23;;;;;;;1.85;84.17;101062.56;5126579;27;20019;-88
2022/01/07 04:43:54;;;;;;;5.20;3.03;;;;;;;1.85;84.19;101052.31;5132892;27;20029;-88
2022/01/07 04:46:19;;;;;;;5.87;3.33;;;;;;;1.89;84.16;101050.63;5138572;27;20354;-88
2022/01/07 04:48:45;;;;;;;5.80;3.37;;;;;;;1.85;84.52;101060.00;5130891;27;20031;-89
2022/01/07 04:51:10;;;;;;;7.37;3.37;;;;;;;1.85;84.67;101060.00;5128429;27;20023;-89
2022/01/07 04:53:36;;;;;;;7.13;3.60;;;;;;;1.85;84.56;101054.88;5127323;27;20864;-88
2022/01/07 04:56:01;;;;;;;6.57;3.33;;;;;;;1.89;84.58;101053.19;5128205;27;20035;-89
2022/01/07 04:58:26;;;;;;;7.87;3.37;;;;;;;1.90;84.82;101045.50;5131445;27;21770;-88
2022/01/07 05:00:52;;;;;;;6.53;3.67;;;;;;;1.90;84.87;101049.78;5123974;27;20094;-88
2022/01/07 05:03:17;;;;;;;5.83;3.57;;;;;;;1.90;84.64;101042.94;5131351;27;20019;-88
2022/01/07 05:05:47;;;;;;;7.03;4.07;;;;;;;1.91;85.04;101039.53;5128985;27;20454;-89
2022/01/07 05:08:15;;;;;;;9.63;3.97;;;;;;;1.91;85.40;101044.66;5129403;27;20080;-88
2022/01/07 05:10:41;;;;;;;7.60;4.03;;;;;;;1.92;85.17;101046.41;5125854;27;20027;-89
2022/01/07 05:13:06;;;;;;;6.83;3.73;;;;;;;1.95;84.83;101041.31;5137474;27;20094;-89
2022/01/07 05:15:31;;;;;;;5.70;3.63;;;;;;;1.95;85.50;101031.06;5131982;27;20031;-90
2022/01/07 05:17:57;;;;;;;7.30;4.10;;;;;;;2.00;85.30;101027.69;5133767;27;20027;-89
2022/01/07 05:20:22;;;;;;;6.17;3.70;;;;;;;2.00;85.50;101022.56;5128572;27;20056;-89
2022/01/07 05:22:48;;;;;;;7.37;3.70;;;;;;;2.04;85.45;101024.31;5128994;27;20084;-89
2022/01/07 05:25:14;;;;;;;8.50;4.30;;;;;;;2.05;85.69;101020.91;5129708;27;20025;-89
2022/01/07 05:27:39;;;;;;;7.03;3.87;;;;;;;2.05;85.71;101010.66;5127694;27;20449;-88
2022/01/07 05:30:07;;;;;;;9.47;4.00;;;;;;;2.08;85.40;101026.06;5131596;27;20026;-89
2022/01/07 05:32:32;;;;;;;9.07;4.40;;;;;;;2.08;85.63;101014.09;5131232;27;20039;-88
2022/01/07 05:34:58;;;;;;;7.37;4.63;;;;;;;2.08;85.97;101026.06;5129876;27;20123;-89
2022/01/07 05:37:23;;;;;;;9.30;4.70;;;;;;;2.13;85.96;101021.84;5129513;27;20023;-90
2022/01/07 05:39:48;;;;;;;8.23;4.50;;;;;;;2.12;85.94;101028.72;5128815;27;20126;-89
2022/01/07 05:42:14;;;;;;;6.60;3.93;;;;;;;2.15;85.79;101022.75;5135581;27;20508;-89
2022/01/07 05:44:40;;;;;;;8.27;5.13;;;;;;;2.18;86.02;101014.22;5133147;27;20019;-89
2022/01/07 05:47:05;;;;;;;9.17;4.93;;;;;;;2.18;85.91;101016.78;5131410;27;20071;-90
2022/01/07 05:49:31;;;;;;;8.13;4.33;;;;;;;2.21;86.25;101012.56;5125793;27;20031;-90
2022/01/07 05:51:56;;;;;;;7.67;4.53;;;;;;;2.24;86.28;101002.28;5138706;27;20034;-90
2022/01/07 05:54:22;;;;;;;8.33;4.80;;;;;;;2.27;85.98;101002.34;5134850;27;20019;-89
2022/01/07 05:56:48;;;;;;;8.93;4.83;;;;;;;2.24;86.24;101007.44;5130854;27;20023;-89
2022/01/07 05:59:13;;;;;;;8.17;4.97;;;;;;;2.28;86.11;101011.75;5126983;27;20022;-89
2022/01/07 06:01:38;;;;;;;10.93;4.57;;;;;;;2.33;85.95;101005.81;5128472;27;20023;-90
2022/01/07 06:04:03;;;;;;;10.67;5.30;;;;;;;2.31;86.31;100992.94;5132844;27;20023;-88
2022/01/07 06:06:29;;;;;;;7.93;4.90;;;;;;;2.33;86.21;100998.13;5126892;27;20092;-89
2022/01/07 06:08:54;;;;;;;7.70;4.93;;;;;;;2.35;86.29;101009.28;5128679;27;20102;-89
2022/01/07 06:11:19;;;;;;;8.17;4.93;;;;;;;2.38;86.54;101004.19;5131615;27;20023;-90
2022/01/07 06:13:45;;;;;;;7.97;5.10;;;;;;;2.39;86.30;101003.34;5126350;27;20363;-90
2022/01/07 06:16:10;;;;;;;10.57;4.90;;;;;;;2.46;86.37;101006.81;5131312;27;20019;-90
2022/01/07 06:18:39;;;;;;;7.73;4.97;;;;;;;2.43;86.38;101003.38;5125959;27;20029;-89
2022/01/07 06:21:05;;;;;;;7.37;4.93;;;;;;;2.44;86.40;101004.22;5130068;27;20043;-90
2022/01/07 06:23:30;;;;;;;12.00;5.73;;;;;;;2.43;85.97;100997.38;5124613;27;20059;-90
2022/01/07 06:25:55;;;;;;;11.73;5.10;;;;;;;2.47;86.37;101000.84;5123977;27;20027;-90
2022/01/07 06:28:21;;;;;;;7.33;5.30;;;;;;;2.49;86.37;101002.56;5127731;27;20076;-89
2022/01/07 06:30:46;;;;;;;9.17;5.23;;;;;;;2.50;86.29;101004.31;5119680;27;20500;-90
2022/01/07 06:33:11;;;;;;;10.10;5.40;;;;;;;2.50;86.40;101014.56;5127433;27;20389;-91
2022/01/07 06:35:37;;;;;;;9.63;5.20;;;;;;;2.56;86.12;101008.63;5132081;27;20073;-90
2022/01/07 06:38:03;;;;;;;9.33;5.27;;;;;;;2.58;86.42;101006.94;5131536;27;20027;-90
2022/01/07 06:40:29;;;;;;;9.00;5.30;;;;;;;2.57;85.87;101011.19;5131944;27;20101;-88
2022/01/07 06:42:54;;;;;;;8.60;5.27;;;;;;;2.57;86.32;101013.78;5136067;27;20469;-91
2022/01/07 06:45:19;;;;;;;8.30;5.60;;;;;;;2.60;86.31;101005.25;5136774;27;20527;-90
2022/01/07 06:47:45;;;;;;;9.20;5.53;;;;;;;2.63;85.94;101014.69;5143354;27;20110;-89
2022/01/07 06:50:11;;;;;;;11.40;5.40;;;;;;;2.64;86.07;101011.28;5138944;27;20023;-91
2022/01/07 06:52:36;;;;;;;13.43;5.90;;;;;;;2.64;86.13;101013.84;5137828;27;20022;-89
2022/01/07 06:55:02;;;;;;;10.60;5.47;;;;;;;2.64;86.46;101001.00;5131566;27;20458;-89
2022/01/07 06:57:28;;;;;;;10.30;5.70;;;;;;;2.66;86.54;101013.00;5129614;27;20541;-90
2022/01/07 06:59:53;;;;;;;9.53;5.30;;;;;;;2.67;86.65;101011.31;5129534;27;20169;-90
2022/01/07 07:02:18;;;;;;;8.90;5.53;;;;;;;2.70;86.42;101016.47;5127120;27;20022;-90
2022/01/07 07:04:46;;;;;;;10.07;5.80;;;;;;;2.69;86.31;101007.06;5141070;27;20026;-89
2022/01/07 07:07:11;;;;;;;13.50;5.77;;;;;;;2.70;86.05;101006.22;5135561;27;20027;-89
2022/01/07 07:09:36;;;;;;;11.70;5.93;;;;;;;2.73;86.26;101017.38;5134209;27;20190;-89
2022/01/07 07:12:02;;;;;;;9.60;5.57;;;;;;;2.78;86.46;101011.41;5138781;27;20081;-90
2022/01/07 07:14:28;;;;;;;10.93;6.23;;;;;;;2.77;86.31;101013.09;5143323;27;20027;-89
2022/01/07 07:16:53;;;;;;;11.73;6.20;;;;;;;2.78;86.33;101019.97;5136918;27;20077;-90
2022/01/07 07:19:18;;;;;;;11.13;5.87;;;;;;;2.80;86.09;101025.97;5132383;27;20059;-90
2022/01/07 07:21:44;;;;;;;10.83;6.07;;;;;;;2.81;86.09;101029.44;5130465;27;20031;-89
2022/01/07 07:24:09;;;;;;;11.17;6.63;;;;;;;2.79;86.37;101026.84;5129834;27;20095;-88
2022/01/07 07:26:34;;;;;;;12.67;6.43;;;;;;;2.82;86.51;101037.13;5150766;27;20469;-88
2022/01/07 07:28:59;;;;;;;9.40;5.83;;;;;;;2.84;86.68;101035.44;5141803;27;20031;-88
2022/01/07 07:31:25;;;;;;;10.83;5.80;;;;;;;2.84;86.51;101022.59;5137618;27;20102;-89
2022/01/07 07:36:27;;;;;;;10.57;6.00;;;;;;;2.90;86.59;101028.66;5130121;27;20039;-89
2022/01/07 07:38:54;;;;;;;13.07;6.20;;;;;;;2.95;86.01;101032.09;5134552;27;20064;-90
2022/01/07 07:41:19;;;;;;;12.97;5.97;;;;;;;2.94;86.48;101026.13;5136805;27;20071;-88
2022/01/07 07:43:47;;;;;;;13.43;5.87;;;;;;;2.97;86.25;101021.00;5132420;27;20451;-88
2022/01/07 07:46:12;;;;;;;9.97;5.67;;;;;;;3.00;85.92;101021.00;5134648;27;20140;-89
2022/01/07 07:48:37;;;;;;;12.70;6.80;;;;;;;2.99;86.14;101015.88;5150873;27;20105;-88
2022/01/07 07:51:03;;;;;;;14.10;6.43;;;;;;;3.00;86.03;101018.44;5132155;27;20153;-90
2022/01/07 07:53:28;;;;;;;14.23;6.20;;;;;;;3.03;86.46;101015.06;5132049;27;20034;-89
2022/01/07 07:55:53;;;;;;;11.40;5.73;;;;;;;3.09;86.06;101017.66;5133718;27;20034;-90
2022/01/07 07:58:20;;;;;;;10.93;6.13;;;;;;;3.08;86.23;101008.22;5131587;27;20296;-89
2022/01/07 08:00:46;;;;;;;11.47;5.80;;;;;;;3.08;86.34;101000.50;5132220;27;20035;-89
2022/01/07 08:03:12;;;;;;;12.40;6.23;;;;;;;3.09;86.30;101004.81;5128013;27;20030;-89
2022/01/07 08:05:37;;;;;;;12.13;6.97;;;;;;;3.11;86.01;101007.41;5129931;27;20031;-90
2022/01/07 08:08:02;;;;;;;13.07;6.37;;;;;;;3.12;86.40;101004.84;5126974;27;20030;-90
2022/01/07 08:10:29;;;;;;;10.50;6.37;;;;;;;3.13;86.35;101009.13;5130055;27;20156;-89
2022/01/07 08:18:22;;;;;;;11.83;6.40;;;;;;;3.21;86.13;101013.47;5128758;27;20046;-89
2022/01/07 08:20:48;;;;;;;10.43;6.27;;;;;;;3.23;86.04;101004.06;5130636;27;20091;-89
2022/01/07 08:23:13;;;;;;;13.47;6.73;;;;;;;3.28;86.25;101015.22;5128651;27;20055;-90
2022/01/07 08:25:39;;;;;;;12.00;6.50;;;;;;;3.27;86.12;100998.06;5130586;27;20023;-89
2022/01/07 08:28:05;;;;;;;9.27;5.83;;;;;;;3.28;85.89;100994.66;5129113;27;20446;-87
2022/01/07 08:30:58;;;;;;;11.43;5.80;;;;;;;3.30;85.83;101000.69;5135285;27;20050;-90
2022/01/07 08:36:07;;;;;;;11.90;6.47;;;;;;;3.33;85.67;101008.41;5137904;27;19938;-89
2022/01/07 08:38:32;;;;;;;11.80;6.43;;;;;;;3.34;85.55;101010.13;5131389;27;20470;-90
2022/01/07 08:40:58;;;;;;;13.07;6.50;;;;;;;3.39;85.04;101000.75;5138226;27;20438;-90
2022/01/07 08:43:24;;;;;;;12.10;5.73;;;;;;;3.39;85.26;101003.31;5133103;27;20092;-91
2022/01/07 08:45:49;;;;;;;12.00;6.60;;;;;;;3.40;84.99;101005.06;5134883;27;20469;-89
2022/01/07 08:48:14;;;;;;;13.20;5.97;;;;;;;3.40;85.49;100999.91;5131777;27;20416;-90
2022/01/07 08:50:39;;;;;;;10.33;6.57;;;;;;;3.44;85.22;101000.78;5136299;27;20111;-90
2022/01/07 08:53:05;;;;;;;13.73;5.97;;;;;;;3.43;85.21;100993.91;5129138;27;20389;-89
2022/01/07 08:55:30;;;;;;;12.60;6.57;;;;;;;3.44;85.57;100995.63;5136974;27;20450;-89
2022/01/07 08:57:55;;;;;;;12.63;5.67;;;;;;;3.46;85.17;100999.91;5136666;27;20033;-90
2022/01/07 09:00:21;;;;;;;15.93;6.07;;;;;;;3.46;85.17;100999.06;5135097;27;20034;-89
2022/01/07 09:02:46;;;;;;;11.97;6.40;;;;;;;3.48;85.27;101008.50;5134020;27;20035;-89
2022/01/07 09:05:11;;;;;;;18.10;6.80;;;;;;;3.52;84.83;101003.41;5135275;27;20067;-90
2022/01/07 09:07:37;;;;;;;9.63;5.87;;;;;;;3.54;85.19;101007.69;5128542;27;20027;-90
2022/01/07 09:10:02;;;;;;;13.53;6.20;;;;;;;3.56;85.15;101011.13;5135648;27;20027;-91
2022/01/07 09:12:28;;;;;;;13.27;5.80;;;;;;;3.58;84.61;101004.28;5133253;27;20084;-90
2022/01/07 09:14:53;;;;;;;12.13;5.73;;;;;;;3.64;84.72;101011.16;5135251;27;20442;-90
2022/01/07 09:17:18;;;;;;;14.17;6.07;;;;;;;3.60;84.80;101001.72;5136021;27;20035;-91
2022/01/07 09:19:43;;;;;;;10.17;5.60;;;;;;;3.64;84.53;100995.75;5149312;27;20453;-91
2022/01/07 09:22:09;;;;;;;15.93;7.43;;;;;;;3.63;84.50;101001.72;5134603;27;20027;-89
2022/01/07 09:24:34;;;;;;;17.97;5.93;;;;;;;3.65;84.14;101015.47;5136599;27;20100;-90
2022/01/07 09:27:00;;;;;;;11.53;6.07;;;;;;;3.65;84.77;100994.88;5134000;27;20087;-89
2022/01/07 09:29:27;;;;;;;10.47;5.97;;;;;;;3.64;84.60;101006.03;5140907;27;20098;-90
2022/01/07 09:31:53;;;;;;;10.17;5.77;;;;;;;3.62;84.85;101002.59;5125225;27;20034;-90
2022/01/07 09:34:19;;;;;;;12.87;6.43;;;;;;;3.64;84.43;101003.47;5130511;27;20374;-89
2022/01/07 09:36:45;;;;;;;11.20;6.10;;;;;;;3.67;84.83;101011.19;5129665;27;20122;-90
2022/01/07 09:39:10;;;;;;;10.33;5.73;;;;;;;3.69;84.35;101001.78;5142808;27;20023;-89
2022/01/07 09:41:35;;;;;;;10.07;5.57;;;;;;;3.74;84.50;101009.50;5130984;27;20107;-89
2022/01/07 09:44:01;;;;;;;11.43;5.80;;;;;;;3.77;84.85;101005.22;5131597;27;20031;-88
2022/01/07 09:46:27;;;;;;;12.83;6.17;;;;;;;3.83;84.25;101003.56;5128974;27;20055;-89
2022/01/07 09:48:52;;;;;;;9.23;5.70;;;;;;;3.84;84.23;101000.13;5137308;27;20026;-88
2022/01/07 09:51:18;;;;;;;9.60;5.37;;;;;;;3.83;84.01;101003.56;5126304;27;20492;-90
2022/01/07 09:53:43;;;;;;;9.83;5.67;;;;;;;3.85;84.17;100996.69;5135819;27;20031;-89
2022/01/07 09:56:08;;;;;;;15.47;6.20;;;;;;;3.83;83.94;100990.69;5136914;27;20072;-88
2022/01/07 09:58:34;;;;;;;10.23;4.93;;;;;;;3.85;83.68;100997.53;5131681;27;20019;-90
2022/01/07 10:01:02;;;;;;;9.07;5.57;;;;;;;3.85;83.91;100999.28;5133893;27;20094;-89
2022/01/07 10:03:37;;;;;;;9.73;5.53;;;;;;;3.88;83.42;100986.44;5131769;27;20030;-88
2022/01/07 10:06:15;;;;;;;11.67;6.07;;;;;;;3.97;83.60;101001.06;5129255;27;21341;-89
2022/01/07 10:08:40;;;;;;;10.40;5.80;;;;;;;3.97;83.64;100986.44;5147358;27;20071;-89
2022/01/07 10:11:18;;;;;;;11.23;5.00;;;;;;;3.98;83.34;100998.47;5131284;27;20027;-89
2022/01/07 10:13:49;;;;;;;9.63;5.30;;;;;;;4.02;83.49;100995.06;5127308;27;20023;-90
2022/01/07 10:16:17;;;;;;;10.33;5.87;;;;;;;4.08;83.16;100989.06;5128768;27;20046;-90
2022/01/07 10:18:43;;;;;;;9.33;4.80;;;;;;;4.15;83.27;100982.22;5126355;27;20247;-90
2022/01/07 10:21:10;;;;;;;10.17;4.77;;;;;;;4.16;82.65;100981.38;5132929;27;20382;-91
2022/01/07 10:23:35;;;;;;;9.77;4.80;;;;;;;4.15;82.29;100977.94;5124522;27;20142;-88
2022/01/07 10:26:02;;;;;;;8.63;5.10;;;;;;;4.17;83.06;100988.25;5131297;27;20061;-88
2022/01/07 10:28:31;;;;;;;8.57;4.80;;;;;;;4.21;82.41;100974.53;5132803;27;20024;-89
2022/01/07 10:30:56;;;;;;;10.23;4.70;;;;;;;4.21;82.49;100977.09;5132411;27;20486;-90
2022/01/07 10:33:23;;;;;;;11.53;4.60;;;;;;;4.24;82.31;100980.53;5122290;27;20050;-90
2022/01/07 10:35:54;;;;;;;9.07;4.93;;;;;;;4.25;82.69;100971.09;5129025;27;20030;-90
2022/01/07 10:38:27;;;;;;;9.23;4.73;;;;;;;4.30;82.35;100977.09;5127599;27;20024;-89
2022/01/07 10:40:56;;;;;;;9.37;4.57;;;;;;;4.36;81.83;100969.41;5131644;27;20050;-89
2022/01/07 10:43:32;;;;;;;7.50;3.97;;;;;;;4.38;82.07;100967.69;5124513;27;20019;-88
2022/01/07 10:46:00;;;;;;;8.17;4.70;;;;;;;4.44;82.01;100960.84;5129171;27;20114;-90
2022/01/07 10:48:56;;;;;;;10.57;4.33;;;;;;;4.50;81.97;100966.00;5129487;27;20031;-89
2022/01/07 10:51:22;;;;;;;7.43;3.97;;;;;;;4.48;81.50;100963.44;5128113;27;20103;-90
2022/01/07 10:54:10;;;;;;;11.37;4.10;;;;;;;4.48;81.39;100962.53;5135665;27;20477;-90
2022/01/07 10:56:44;;;;;;;10.60;4.20;;;;;;;4.49;81.96;100948.81;5133701;27;20023;-88
2022/01/07 10:59:14;;;;;;;9.83;4.13;;;;;;;4.52;81.89;100946.25;5130765;27;20019;-90
2022/01/07 11:01:47;;;;;;;12.97;4.67;;;;;;;4.55;81.92;100938.53;5122532;27;20061;-90
2022/01/07 11:04:16;;;;;;;12.50;4.33;;;;;;;4.59;80.87;100934.22;5125999;27;20099;-89
2022/01/07 11:06:42;;;;;;;8.73;3.80;;;;;;;4.63;80.72;100929.06;5132137;27;20033;-88
2022/01/07 11:09:09;;;;;;;10.40;3.70;;;;;;;4.66;80.24;100926.50;5133149;27;20031;-90
2022/01/07 11:11:44;;;;;;;10.43;4.00;;;;;;;4.68;80.93;100929.09;5130994;27;20023;-89
2022/01/07 11:14:11;;;;;;;10.77;3.73;;;;;;;4.73;80.46;100936.81;5129930;27;20029;-89
2022/01/07 11:16:37;;;;;;;7.37;3.60;;;;;;;4.77;80.60;100941.13;5125541;27;20057;-90
2022/01/07 11:19:04;;;;;;;13.57;4.10;;;;;;;4.80;80.24;100941.97;5125801;27;20474;-89
2022/01/07 11:21:30;;;;;;;9.83;4.43;;;;;;;4.91;80.10;100936.81;5123099;27;20027;-88
2022/01/07 11:23:55;;;;;;;9.32;3.75;;;;;;;5.01;79.81;100938.50;5127429;27;20040;-90
2022/01/07 11:26:20;;;;;;;8.60;3.30;;;;;;;5.10;78.54;100940.22;5123991;27;20182;-89
2022/01/07 11:28:59;;;;;;;9.30;3.57;;;;;;;5.15;78.98;100940.19;5127777;27;20041;-90
2022/01/07 11:31:25;;;;;;;7.38;3.42;;;;;;;5.15;77.99;100941.06;5129788;27;20473;-89
2022/01/07 11:34:18;;;;;;;10.52;3.60;;;;;;;5.21;78.99;100944.50;5127701;27;20042;-90
2022/01/07 11:36:43;;;;;;;12.50;4.60;;;;;;;5.24;78.58;100940.19;5128135;27;20039;-89